sensor_id;sensor_type;location;lat;lon;timestamp;temperature;humidity
39017;DHT22;24784;45.582;5.276;2023-02-23T00:00:28;10.40;99.90
39017;DHT22;24784;45.582;5.276;2023-02-23T00:02:55;10.40;99.90
39017;DHT22;24784;45.582;5.276;2023-02-23T00:05:24;10.40;99.90
39017;DHT22;24784;45.582;5.276;2023-02-23T00:07:53;10.40;99.90
39017;DHT22;24784;45.582;5.276;2023-02-23T00:10:19;10.40;99.90
39017;DHT22;24784;45.582;5.276;2023-02-23T00:12:46;10.30;99.90
39017;DHT22;24784;45.582;5.276;2023-02-23T00:15:15;10.30;99.90
39017;DHT22;24784;45.582;5.276;2023-02-23T00:17:41;10.30;99.90
39017;DHT22;24784;45.582;5.276;2023-02-23T00:20:10;10.30;99.90
39017;DHT22;24784;45.582;5.276;2023-02-23T00:22:40;10.30;99.90
39017;DHT22;24784;45.582;5.276;2023-02-23T00:25:10;10.30;99.90
39017;DHT22;24784;45.582;5.276;2023-02-23T00:27:39;10.30;99.90
39017;DHT22;24784;45.582;5.276;2023-02-23T00:30:15;10.30;99.90
39017;DHT22;24784;45.582;5.276;2023-02-23T00:32:43;10.30;99.90
39017;DHT22;24784;45.582;5.276;2023-02-23T00:35:09;10.30;99.90
39017;DHT22;24784;45.582;5.276;2023-02-23T00:37:46;10.20;99.90
39017;DHT22;24784;45.582;5.276;2023-02-23T00:40:14;10.20;99.90
39017;DHT22;24784;45.582;5.276;2023-02-23T00:42:41;10.30;99.90
39017;DHT22;24784;45.582;5.276;2023-02-23T00:45:08;10.20;99.90
39017;DHT22;24784;45.582;5.276;2023-02-23T00:47:37;10.20;99.90
39017;DHT22;24784;45.582;5.276;2023-02-23T00:50:04;10.10;99.90
39017;DHT22;24784;45.582;5.276;2023-02-23T00:52:30;10.20;99.90
39017;DHT22;24784;45.582;5.276;2023-02-23T00:54:56;10.20;99.90
39017;DHT22;24784;45.582;5.276;2023-02-23T00:57:22;10.20;99.90
39017;DHT22;24784;45.582;5.276;2023-02-23T00:59:48;10.20;99.90
39017;DHT22;24784;45.582;5.276;2023-02-23T01:02:14;10.20;99.90
39017;DHT22;24784;45.582;5.276;2023-02-23T01:04:40;10.20;99.90
39017;DHT22;24784;45.582;5.276;2023-02-23T01:07:06;10.20;99.90
39017;DHT22;24784;45.582;5.276;2023-02-23T01:09:31;10.20;99.90
39017;DHT22;24784;45.582;5.276;2023-02-23T01:11:58;10.20;99.90
39017;DHT22;24784;45.582;5.276;2023-02-23T01:14:27;10.10;99.90
39017;DHT22;24784;45.582;5.276;2023-02-23T01:16:53;10.10;99.90
39017;DHT22;24784;45.582;5.276;2023-02-23T01:19:20;10.10;99.90
39017;DHT22;24784;45.582;5.276;2023-02-23T01:21:45;10.10;99.90
39017;DHT22;24784;45.582;5.276;2023-02-23T01:24:12;10.00;99.90
39017;DHT22;24784;45.582;5.276;2023-02-23T01:26:41;9.90;99.90
39017;DHT22;24784;45.582;5.276;2023-02-23T01:29:10;9.90;99.90
39017;DHT22;24784;45.582;5.276;2023-02-23T01:31:41;9.90;99.90
39017;DHT22;24784;45.582;5.276;2023-02-23T01:34:10;9.80;99.90
39017;DHT22;24784;45.582;5.276;2023-02-23T01:36:38;9.80;99.90
39017;DHT22;24784;45.582;5.276;2023-02-23T01:39:06;9.70;99.90
39017;DHT22;24784;45.582;5.276;2023-02-23T01:41:34;9.70;99.90
39017;DHT22;24784;45.582;5.276;2023-02-23T01:46:43;9.60;99.90
39017;DHT22;24784;45.582;5.276;2023-02-23T01:49:15;9.60;99.90
39017;DHT22;24784;45.582;5.276;2023-02-23T01:51:51;9.60;99.90
39017;DHT22;24784;45.582;5.276;2023-02-23T01:54:22;9.60;99.90
39017;DHT22;24784;45.582;5.276;2023-02-23T01:56:52;9.60;99.90
39017;DHT22;24784;45.582;5.276;2023-02-23T01:59:42;9.50;99.90
39017;DHT22;24784;45.582;5.276;2023-02-23T02:02:09;9.50;99.90
39017;DHT22;24784;45.582;5.276;2023-02-23T02:04:37;9.50;99.90
39017;DHT22;24784;45.582;5.276;2023-02-23T02:09:40;9.50;99.90
39017;DHT22;24784;45.582;5.276;2023-02-23T02:12:21;9.40;99.90
39017;DHT22;24784;45.582;5.276;2023-02-23T02:14:48;9.50;99.90
39017;DHT22;24784;45.582;5.276;2023-02-23T02:17:58;9.50;99.90
39017;DHT22;24784;45.582;5.276;2023-02-23T02:38:14;9.20;99.90
39017;DHT22;24784;45.582;5.276;2023-02-23T02:40:50;9.20;99.90
39017;DHT22;24784;45.582;5.276;2023-02-23T02:43:30;9.10;99.90
39017;DHT22;24784;45.582;5.276;2023-02-23T02:46:17;9.00;99.90
39017;DHT22;24784;45.582;5.276;2023-02-23T02:51:41;9.00;99.90
39017;DHT22;24784;45.582;5.276;2023-02-23T02:56:37;9.00;99.90
39017;DHT22;24784;45.582;5.276;2023-02-23T02:59:08;8.90;99.90
39017;DHT22;24784;45.582;5.276;2023-02-23T03:01:54;8.70;99.90
39017;DHT22;24784;45.582;5.276;2023-02-23T03:04:38;8.80;99.90
39017;DHT22;24784;45.582;5.276;2023-02-23T03:07:30;8.80;99.90
39017;DHT22;24784;45.582;5.276;2023-02-23T03:19:24;8.40;99.90
39017;DHT22;24784;45.582;5.276;2023-02-23T03:22:29;8.50;99.90
39017;DHT22;24784;45.582;5.276;2023-02-23T03:25:22;8.40;99.90
39017;DHT22;24784;45.582;5.276;2023-02-23T03:28:17;8.40;99.90
39017;DHT22;24784;45.582;5.276;2023-02-23T03:31:24;8.40;99.90
39017;DHT22;24784;45.582;5.276;2023-02-23T03:34:19;8.30;99.90
39017;DHT22;24784;45.582;5.276;2023-02-23T03:37:26;8.20;99.90
39017;DHT22;24784;45.582;5.276;2023-02-23T03:40:17;8.20;99.90
39017;DHT22;24784;45.582;5.276;2023-02-23T03:43:06;8.20;99.90
39017;DHT22;24784;45.582;5.276;2023-02-23T03:45:52;8.10;99.90
39017;DHT22;24784;45.582;5.276;2023-02-23T03:48:39;8.10;99.90
39017;DHT22;24784;45.582;5.276;2023-02-23T03:51:28;8.20;99.90
39017;DHT22;24784;45.582;5.276;2023-02-23T03:54:19;8.00;99.90
39017;DHT22;24784;45.582;5.276;2023-02-23T03:57:09;8.00;99.90
39017;DHT22;24784;45.582;5.276;2023-02-23T04:00:01;8.10;99.90
39017;DHT22;24784;45.582;5.276;2023-02-23T04:02:49;8.10;99.90
39017;DHT22;24784;45.582;5.276;2023-02-23T04:05:37;8.10;99.90
39017;DHT22;24784;45.582;5.276;2023-02-23T04:08:31;8.10;99.90
39017;DHT22;24784;45.582;5.276;2023-02-23T04:14:44;8.00;99.90
39017;DHT22;24784;45.582;5.276;2023-02-23T04:17:13;8.00;99.90
39017;DHT22;24784;45.582;5.276;2023-02-23T04:19:48;7.90;99.90
39017;DHT22;24784;45.582;5.276;2023-02-23T04:22:14;7.90;99.90
39017;DHT22;24784;45.582;5.276;2023-02-23T04:24:40;8.00;99.90
39017;DHT22;24784;45.582;5.276;2023-02-23T04:27:06;7.80;99.90
39017;DHT22;24784;45.582;5.276;2023-02-23T04:29:32;7.80;99.90
39017;DHT22;24784;45.582;5.276;2023-02-23T04:31:57;7.90;99.90
39017;DHT22;24784;45.582;5.276;2023-02-23T04:34:23;8.00;99.90
39017;DHT22;24784;45.582;5.276;2023-02-23T04:36:49;7.80;99.90
39017;DHT22;24784;45.582;5.276;2023-02-23T04:39:16;7.80;99.90
39017;DHT22;24784;45.582;5.276;2023-02-23T04:41:41;7.90;99.90
39017;DHT22;24784;45.582;5.276;2023-02-23T04:44:07;7.80;99.90
39017;DHT22;24784;45.582;5.276;2023-02-23T04:46:33;7.90;99.90
39017;DHT22;24784;45.582;5.276;2023-02-23T04:48:59;7.90;99.90
39017;DHT22;24784;45.582;5.276;2023-02-23T04:51:25;7.80;99.90
39017;DHT22;24784;45.582;5.276;2023-02-23T04:53:57;7.90;99.90
39017;DHT22;24784;45.582;5.276;2023-02-23T04:56:22;7.80;99.90
39017;DHT22;24784;45.582;5.276;2023-02-23T04:58:48;7.80;99.90
39017;DHT22;24784;45.582;5.276;2023-02-23T05:01:15;7.70;99.90
39017;DHT22;24784;45.582;5.276;2023-02-23T05:03:40;7.70;99.90
39017;DHT22;24784;45.582;5.276;2023-02-23T05:06:06;7.70;99.90
39017;DHT22;24784;45.582;5.276;2023-02-23T05:08:32;7.50;99.90
39017;DHT22;24784;45.582;5.276;2023-02-23T05:10:58;7.50;99.90
39017;DHT22;24784;45.582;5.276;2023-02-23T05:13:24;7.50;99.90
39017;DHT22;24784;45.582;5.276;2023-02-23T05:15:50;7.60;99.90
39017;DHT22;24784;45.582;5.276;2023-02-23T05:18:16;7.60;99.90
39017;DHT22;24784;45.582;5.276;2023-02-23T05:20:42;7.50;99.90
39017;DHT22;24784;45.582;5.276;2023-02-23T05:23:10;7.40;99.90
39017;DHT22;24784;45.582;5.276;2023-02-23T05:25:37;7.40;99.90
39017;DHT22;24784;45.582;5.276;2023-02-23T05:28:03;7.40;99.90
39017;DHT22;24784;45.582;5.276;2023-02-23T05:30:30;7.30;99.90
39017;DHT22;24784;45.582;5.276;2023-02-23T05:32:56;7.20;99.90
39017;DHT22;24784;45.582;5.276;2023-02-23T05:35:21;7.30;99.90
39017;DHT22;24784;45.582;5.276;2023-02-23T05:37:47;7.20;99.90
39017;DHT22;24784;45.582;5.276;2023-02-23T05:40:13;7.20;99.90
39017;DHT22;24784;45.582;5.276;2023-02-23T05:42:39;7.10;99.90
39017;DHT22;24784;45.582;5.276;2023-02-23T05:45:05;7.10;99.90
39017;DHT22;24784;45.582;5.276;2023-02-23T05:47:32;7.10;99.90
39017;DHT22;24784;45.582;5.276;2023-02-23T05:50:07;7.10;99.90
39017;DHT22;24784;45.582;5.276;2023-02-23T05:52:39;7.10;99.90
39017;DHT22;24784;45.582;5.276;2023-02-23T05:55:06;7.00;99.90
39017;DHT22;24784;45.582;5.276;2023-02-23T05:57:33;6.90;99.90
39017;DHT22;24784;45.582;5.276;2023-02-23T05:59:58;6.80;99.90
39017;DHT22;24784;45.582;5.276;2023-02-23T06:02:24;6.90;99.90
39017;DHT22;24784;45.582;5.276;2023-02-23T06:04:50;6.90;99.90
39017;DHT22;24784;45.582;5.276;2023-02-23T06:07:16;6.90;99.90
39017;DHT22;24784;45.582;5.276;2023-02-23T06:09:41;6.80;99.90
39017;DHT22;24784;45.582;5.276;2023-02-23T06:12:07;6.80;99.90
39017;DHT22;24784;45.582;5.276;2023-02-23T06:14:33;6.70;99.90
39017;DHT22;24784;45.582;5.276;2023-02-23T06:17:00;6.70;99.90
39017;DHT22;24784;45.582;5.276;2023-02-23T06:19:26;6.70;99.90
39017;DHT22;24784;45.582;5.276;2023-02-23T06:21:51;6.70;99.90
39017;DHT22;24784;45.582;5.276;2023-02-23T06:24:18;6.60;99.90
39017;DHT22;24784;45.582;5.276;2023-02-23T06:26:44;6.60;99.90
39017;DHT22;24784;45.582;5.276;2023-02-23T06:29:10;6.60;99.90
39017;DHT22;24784;45.582;5.276;2023-02-23T06:31:37;6.50;99.90
39017;DHT22;24784;45.582;5.276;2023-02-23T06:34:03;6.50;99.90
39017;DHT22;24784;45.582;5.276;2023-02-23T06:36:29;6.50;99.90
39017;DHT22;24784;45.582;5.276;2023-02-23T06:38:58;6.50;99.90
39017;DHT22;24784;45.582;5.276;2023-02-23T06:41:25;6.50;99.90
39017;DHT22;24784;45.582;5.276;2023-02-23T06:43:51;6.60;99.90
39017;DHT22;24784;45.582;5.276;2023-02-23T06:46:17;6.50;99.90
39017;DHT22;24784;45.582;5.276;2023-02-23T06:48:43;6.50;99.90
39017;DHT22;24784;45.582;5.276;2023-02-23T06:51:09;6.50;99.90
39017;DHT22;24784;45.582;5.276;2023-02-23T06:53:35;6.50;99.90
39017;DHT22;24784;45.582;5.276;2023-02-23T06:56:01;6.50;99.90
39017;DHT22;24784;45.582;5.276;2023-02-23T06:58:28;6.40;99.90
39017;DHT22;24784;45.582;5.276;2023-02-23T07:00:57;6.50;99.90
39017;DHT22;24784;45.582;5.276;2023-02-23T07:03:24;6.40;99.90
39017;DHT22;24784;45.582;5.276;2023-02-23T07:05:51;6.50;99.90
39017;DHT22;24784;45.582;5.276;2023-02-23T07:08:18;6.50;99.90
39017;DHT22;24784;45.582;5.276;2023-02-23T07:10:44;6.50;99.90
39017;DHT22;24784;45.582;5.276;2023-02-23T07:13:10;6.50;99.90
39017;DHT22;24784;45.582;5.276;2023-02-23T07:15:40;6.50;99.90
39017;DHT22;24784;45.582;5.276;2023-02-23T07:18:06;6.50;99.90
39017;DHT22;24784;45.582;5.276;2023-02-23T07:20:32;6.60;99.90
39017;DHT22;24784;45.582;5.276;2023-02-23T07:22:59;6.60;99.90
39017;DHT22;24784;45.582;5.276;2023-02-23T07:25:28;6.60;99.90
39017;DHT22;24784;45.582;5.276;2023-02-23T07:27:55;6.60;99.90
39017;DHT22;24784;45.582;5.276;2023-02-23T07:30:21;6.60;99.90
39017;DHT22;24784;45.582;5.276;2023-02-23T07:32:53;6.60;99.90
39017;DHT22;24784;45.582;5.276;2023-02-23T07:35:19;6.70;99.90
39017;DHT22;24784;45.582;5.276;2023-02-23T07:37:45;6.70;99.90
39017;DHT22;24784;45.582;5.276;2023-02-23T07:40:11;6.70;99.90
39017;DHT22;24784;45.582;5.276;2023-02-23T07:42:40;6.80;99.90
39017;DHT22;24784;45.582;5.276;2023-02-23T07:45:06;6.80;99.90
39017;DHT22;24784;45.582;5.276;2023-02-23T07:47:32;6.90;99.90
39017;DHT22;24784;45.582;5.276;2023-02-23T07:49:59;7.00;99.90
39017;DHT22;24784;45.582;5.276;2023-02-23T07:52:28;7.00;99.90
39017;DHT22;24784;45.582;5.276;2023-02-23T07:54:54;7.10;99.90
39017;DHT22;24784;45.582;5.276;2023-02-23T07:57:20;7.20;99.90
39017;DHT22;24784;45.582;5.276;2023-02-23T07:59:48;7.30;99.90
39017;DHT22;24784;45.582;5.276;2023-02-23T08:02:14;7.40;99.90
39017;DHT22;24784;45.582;5.276;2023-02-23T08:04:41;7.40;99.90
39017;DHT22;24784;45.582;5.276;2023-02-23T08:07:08;7.40;99.90
39017;DHT22;24784;45.582;5.276;2023-02-23T08:09:34;7.40;99.90
39017;DHT22;24784;45.582;5.276;2023-02-23T08:12:01;7.40;99.90
39017;DHT22;24784;45.582;5.276;2023-02-23T08:14:27;7.50;99.90
39017;DHT22;24784;45.582;5.276;2023-02-23T08:16:53;7.40;99.90
39017;DHT22;24784;45.582;5.276;2023-02-23T08:19:19;7.40;99.90
39017;DHT22;24784;45.582;5.276;2023-02-23T08:21:49;7.40;99.90
39017;DHT22;24784;45.582;5.276;2023-02-23T08:24:15;7.40;99.90
39017;DHT22;24784;45.582;5.276;2023-02-23T08:26:41;7.50;99.90
39017;DHT22;24784;45.582;5.276;2023-02-23T08:29:08;7.50;99.90
39017;DHT22;24784;45.582;5.276;2023-02-23T08:31:34;7.60;99.90
39017;DHT22;24784;45.582;5.276;2023-02-23T08:34:00;7.60;99.90
39017;DHT22;24784;45.582;5.276;2023-02-23T08:36:26;7.80;99.90
39017;DHT22;24784;45.582;5.276;2023-02-23T08:38:51;7.80;99.90
39017;DHT22;24784;45.582;5.276;2023-02-23T08:41:19;8.00;99.90
39017;DHT22;24784;45.582;5.276;2023-02-23T08:43:45;8.10;99.90
39017;DHT22;24784;45.582;5.276;2023-02-23T08:46:11;8.40;99.90
39017;DHT22;24784;45.582;5.276;2023-02-23T08:48:37;8.70;99.90
39017;DHT22;24784;45.582;5.276;2023-02-23T08:51:05;9.00;99.90
39017;DHT22;24784;45.582;5.276;2023-02-23T08:53:32;9.20;99.90
39017;DHT22;24784;45.582;5.276;2023-02-23T08:55:59;9.60;99.90
39017;DHT22;24784;45.582;5.276;2023-02-23T08:58:26;9.80;99.90
39017;DHT22;24784;45.582;5.276;2023-02-23T09:00:52;9.90;99.90
39017;DHT22;24784;45.582;5.276;2023-02-23T09:03:21;10.00;99.90
39017;DHT22;24784;45.582;5.276;2023-02-23T09:05:47;9.90;99.90
39017;DHT22;24784;45.582;5.276;2023-02-23T09:08:13;10.20;99.90
39017;DHT22;24784;45.582;5.276;2023-02-23T09:10:39;10.40;99.90
39017;DHT22;24784;45.582;5.276;2023-02-23T09:13:05;10.40;99.90
39017;DHT22;24784;45.582;5.276;2023-02-23T09:15:31;10.50;99.90
39017;DHT22;24784;45.582;5.276;2023-02-23T09:18:00;10.90;99.90
39017;DHT22;24784;45.582;5.276;2023-02-23T09:20:27;11.00;99.90
39017;DHT22;24784;45.582;5.276;2023-02-23T09:22:53;10.90;99.90
39017;DHT22;24784;45.582;5.276;2023-02-23T09:25:20;10.90;99.90
39017;DHT22;24784;45.582;5.276;2023-02-23T09:27:51;10.90;99.90
39017;DHT22;24784;45.582;5.276;2023-02-23T09:30:19;11.10;99.90
39017;DHT22;24784;45.582;5.276;2023-02-23T09:32:51;11.20;99.90
39017;DHT22;24784;45.582;5.276;2023-02-23T09:35:19;11.40;99.90
39017;DHT22;24784;45.582;5.276;2023-02-23T09:37:50;11.50;99.90
39017;DHT22;24784;45.582;5.276;2023-02-23T09:40:28;11.90;99.90
39017;DHT22;24784;45.582;5.276;2023-02-23T09:43:07;12.20;99.90
39017;DHT22;24784;45.582;5.276;2023-02-23T09:50:33;12.20;99.90
39017;DHT22;24784;45.582;5.276;2023-02-23T09:53:07;12.40;99.90
39017;DHT22;24784;45.582;5.276;2023-02-23T09:55:37;12.60;99.90
39017;DHT22;24784;45.582;5.276;2023-02-23T09:58:13;13.10;99.90
39017;DHT22;24784;45.582;5.276;2023-02-23T10:00:44;13.30;99.90
39017;DHT22;24784;45.582;5.276;2023-02-23T10:03:21;13.40;99.90
39017;DHT22;24784;45.582;5.276;2023-02-23T10:05:59;13.30;99.90
39017;DHT22;24784;45.582;5.276;2023-02-23T10:14:28;13.40;99.90
39017;DHT22;24784;45.582;5.276;2023-02-23T10:19:46;13.50;99.90
39017;DHT22;24784;45.582;5.276;2023-02-23T10:22:14;13.80;99.90
39017;DHT22;24784;45.582;5.276;2023-02-23T10:24:51;13.70;99.90
39017;DHT22;24784;45.582;5.276;2023-02-23T10:27:22;13.60;99.90
39017;DHT22;24784;45.582;5.276;2023-02-23T10:29:55;13.40;99.90
39017;DHT22;24784;45.582;5.276;2023-02-23T10:32:41;13.30;99.90
39017;DHT22;24784;45.582;5.276;2023-02-23T10:35:17;13.00;99.90
39017;DHT22;24784;45.582;5.276;2023-02-23T10:37:48;12.70;99.90
39017;DHT22;24784;45.582;5.276;2023-02-23T10:40:22;12.90;99.90
39017;DHT22;24784;45.582;5.276;2023-02-23T10:42:48;12.80;99.90
39017;DHT22;24784;45.582;5.276;2023-02-23T10:45:17;12.80;99.90
39017;DHT22;24784;45.582;5.276;2023-02-23T10:50:19;12.90;99.90
39017;DHT22;24784;45.582;5.276;2023-02-23T10:52:47;12.80;99.90
39017;DHT22;24784;45.582;5.276;2023-02-23T10:57:49;13.10;99.90
39017;DHT22;24784;45.582;5.276;2023-02-23T11:02:45;13.60;99.90
39017;DHT22;24784;45.582;5.276;2023-02-23T11:05:34;13.90;99.90
39017;DHT22;24784;45.582;5.276;2023-02-23T11:08:24;14.20;99.90
39017;DHT22;24784;45.582;5.276;2023-02-23T11:11:16;14.20;99.90
39017;DHT22;24784;45.582;5.276;2023-02-23T11:13:47;14.10;99.90
39017;DHT22;24784;45.582;5.276;2023-02-23T11:16:24;14.20;99.90
39017;DHT22;24784;45.582;5.276;2023-02-23T11:19:04;14.50;99.90
39017;DHT22;24784;45.582;5.276;2023-02-23T11:24:16;14.00;99.90
39017;DHT22;24784;45.582;5.276;2023-02-23T11:26:45;14.20;99.90
39017;DHT22;24784;45.582;5.276;2023-02-23T11:29:24;14.20;99.90
39017;DHT22;24784;45.582;5.276;2023-02-23T11:31:53;14.50;99.90
39017;DHT22;24784;45.582;5.276;2023-02-23T11:34:28;14.40;99.90
39017;DHT22;24784;45.582;5.276;2023-02-23T11:37:04;14.90;99.90
39017;DHT22;24784;45.582;5.276;2023-02-23T11:39:30;14.90;99.90
39017;DHT22;24784;45.582;5.276;2023-02-23T11:42:17;14.70;99.90
39017;DHT22;24784;45.582;5.276;2023-02-23T11:44:49;14.70;99.90
39017;DHT22;24784;45.582;5.276;2023-02-23T11:47:17;14.70;99.90
39017;DHT22;24784;45.582;5.276;2023-02-23T11:49:45;14.50;99.90
39017;DHT22;24784;45.582;5.276;2023-02-23T11:52:18;14.70;99.90
39017;DHT22;24784;45.582;5.276;2023-02-23T11:55:00;14.80;99.90
39017;DHT22;24784;45.582;5.276;2023-02-23T11:57:29;14.60;99.90
39017;DHT22;24784;45.582;5.276;2023-02-23T12:00:00;14.80;99.90
39017;DHT22;24784;45.582;5.276;2023-02-23T12:02:28;14.30;99.90
39017;DHT22;24784;45.582;5.276;2023-02-23T12:05:19;14.50;99.90
39017;DHT22;24784;45.582;5.276;2023-02-23T12:10:54;14.70;99.90
39017;DHT22;24784;45.582;5.276;2023-02-23T12:13:34;14.70;99.90
39017;DHT22;24784;45.582;5.276;2023-02-23T12:16:21;14.80;99.90
39017;DHT22;24784;45.582;5.276;2023-02-23T12:21:46;14.80;99.90
39017;DHT22;24784;45.582;5.276;2023-02-23T12:27:15;14.50;99.90
39017;DHT22;24784;45.582;5.276;2023-02-23T12:30:07;14.50;99.90
39017;DHT22;24784;45.582;5.276;2023-02-23T12:35:13;14.20;99.90
39017;DHT22;24784;45.582;5.276;2023-02-23T12:37:57;14.20;99.90
39017;DHT22;24784;45.582;5.276;2023-02-23T12:40:27;14.10;99.90
39017;DHT22;24784;45.582;5.276;2023-02-23T12:43:15;14.30;99.90
39017;DHT22;24784;45.582;5.276;2023-02-23T12:45:53;14.10;99.90
39017;DHT22;24784;45.582;5.276;2023-02-23T12:53:58;14.80;99.90
39017;DHT22;24784;45.582;5.276;2023-02-23T13:07:21;14.80;99.90
39017;DHT22;24784;45.582;5.276;2023-02-23T13:18:47;14.80;99.90
39017;DHT22;24784;45.582;5.276;2023-02-23T13:21:26;14.70;99.90
39017;DHT22;24784;45.582;5.276;2023-02-23T13:24:13;14.80;99.90
39017;DHT22;24784;45.582;5.276;2023-02-23T13:27:05;14.90;99.90
39017;DHT22;24784;45.582;5.276;2023-02-23T13:29:39;14.90;99.90
39017;DHT22;24784;45.582;5.276;2023-02-23T13:32:11;14.80;99.90
39017;DHT22;24784;45.582;5.276;2023-02-23T13:34:42;14.50;99.90
39017;DHT22;24784;45.582;5.276;2023-02-23T13:37:11;14.30;99.90
39017;DHT22;24784;45.582;5.276;2023-02-23T13:50:49;14.90;99.90
39017;DHT22;24784;45.582;5.276;2023-02-23T13:53:58;14.70;99.90
39017;DHT22;24784;45.582;5.276;2023-02-23T13:56:30;14.70;99.90
39017;DHT22;24784;45.582;5.276;2023-02-23T13:59:03;14.60;99.90
39017;DHT22;24784;45.582;5.276;2023-02-23T14:01:38;14.20;99.90
39017;DHT22;24784;45.582;5.276;2023-02-23T14:04:07;14.10;99.90
39017;DHT22;24784;45.582;5.276;2023-02-23T14:06:39;14.10;99.90
39017;DHT22;24784;45.582;5.276;2023-02-23T14:09:15;14.00;99.90
39017;DHT22;24784;45.582;5.276;2023-02-23T14:11:49;14.00;99.90
39017;DHT22;24784;45.582;5.276;2023-02-23T14:22:25;13.90;99.90
39017;DHT22;24784;45.582;5.276;2023-02-23T14:27:56;13.80;99.90
39017;DHT22;24784;45.582;5.276;2023-02-23T14:30:26;13.60;99.90
39017;DHT22;24784;45.582;5.276;2023-02-23T14:32:52;13.40;99.90
39017;DHT22;24784;45.582;5.276;2023-02-23T14:40:38;13.10;99.90
39017;DHT22;24784;45.582;5.276;2023-02-23T14:46:00;13.40;99.90
39017;DHT22;24784;45.582;5.276;2023-02-23T14:48:31;13.60;99.90
39017;DHT22;24784;45.582;5.276;2023-02-23T14:51:14;13.70;99.90
39017;DHT22;24784;45.582;5.276;2023-02-23T14:53:44;13.80;99.90
39017;DHT22;24784;45.582;5.276;2023-02-23T14:56:22;13.80;99.90
39017;DHT22;24784;45.582;5.276;2023-02-23T14:58:52;13.80;99.90
39017;DHT22;24784;45.582;5.276;2023-02-23T15:01:38;13.60;99.90
39017;DHT22;24784;45.582;5.276;2023-02-23T15:04:12;13.50;99.90
39017;DHT22;24784;45.582;5.276;2023-02-23T15:06:39;13.50;99.90
39017;DHT22;24784;45.582;5.276;2023-02-23T15:09:07;13.30;99.90
39017;DHT22;24784;45.582;5.276;2023-02-23T15:11:40;13.30;99.90
39017;DHT22;24784;45.582;5.276;2023-02-23T15:14:13;13.30;99.90
39017;DHT22;24784;45.582;5.276;2023-02-23T15:16:41;13.20;99.90
39017;DHT22;24784;45.582;5.276;2023-02-23T15:19:18;13.10;99.90
39017;DHT22;24784;45.582;5.276;2023-02-23T15:21:53;13.10;99.90
39017;DHT22;24784;45.582;5.276;2023-02-23T15:24:23;13.00;99.90
39017;DHT22;24784;45.582;5.276;2023-02-23T15:26:51;13.00;99.90
39017;DHT22;24784;45.582;5.276;2023-02-23T15:29:19;13.10;99.90
39017;DHT22;24784;45.582;5.276;2023-02-23T15:31:48;13.10;99.90
39017;DHT22;24784;45.582;5.276;2023-02-23T15:34:25;13.10;99.90
39017;DHT22;24784;45.582;5.276;2023-02-23T15:36:58;13.10;99.90
39017;DHT22;24784;45.582;5.276;2023-02-23T15:42:13;13.10;99.90
39017;DHT22;24784;45.582;5.276;2023-02-23T15:44:40;13.00;99.90
39017;DHT22;24784;45.582;5.276;2023-02-23T15:47:19;12.90;99.90
39017;DHT22;24784;45.582;5.276;2023-02-23T15:49:47;12.90;99.90
39017;DHT22;24784;45.582;5.276;2023-02-23T15:52:19;12.80;99.90
39017;DHT22;24784;45.582;5.276;2023-02-23T15:57:20;12.70;99.90
39017;DHT22;24784;45.582;5.276;2023-02-23T15:59:49;12.70;99.90
39017;DHT22;24784;45.582;5.276;2023-02-23T16:02:19;12.50;99.90
39017;DHT22;24784;45.582;5.276;2023-02-23T16:04:48;12.40;99.90
39017;DHT22;24784;45.582;5.276;2023-02-23T16:07:26;12.50;99.90
39017;DHT22;24784;45.582;5.276;2023-02-23T16:10:21;12.50;99.90
39017;DHT22;24784;45.582;5.276;2023-02-23T16:12:49;12.40;99.90
39017;DHT22;24784;45.582;5.276;2023-02-23T16:15:26;12.40;99.90
39017;DHT22;24784;45.582;5.276;2023-02-23T16:17:57;12.40;99.90
39017;DHT22;24784;45.582;5.276;2023-02-23T16:20:37;12.30;99.90
39017;DHT22;24784;45.582;5.276;2023-02-23T16:23:11;12.30;99.90
39017;DHT22;24784;45.582;5.276;2023-02-23T16:25:41;12.10;99.90
39017;DHT22;24784;45.582;5.276;2023-02-23T16:28:11;12.10;99.90
39017;DHT22;24784;45.582;5.276;2023-02-23T16:30:44;12.00;99.90
39017;DHT22;24784;45.582;5.276;2023-02-23T16:33:22;12.00;99.90
39017;DHT22;24784;45.582;5.276;2023-02-23T16:35:51;12.00;99.90
39017;DHT22;24784;45.582;5.276;2023-02-23T16:38:35;11.80;99.90
39017;DHT22;24784;45.582;5.276;2023-02-23T16:41:02;11.90;99.90
39017;DHT22;24784;45.582;5.276;2023-02-23T16:43:29;11.80;99.90
39017;DHT22;24784;45.582;5.276;2023-02-23T16:45:56;11.90;99.90
39017;DHT22;24784;45.582;5.276;2023-02-23T16:48:22;11.90;99.90
39017;DHT22;24784;45.582;5.276;2023-02-23T16:50:48;11.90;99.90
39017;DHT22;24784;45.582;5.276;2023-02-23T16:53:15;11.90;99.90
39017;DHT22;24784;45.582;5.276;2023-02-23T16:55:51;12.00;99.90
39017;DHT22;24784;45.582;5.276;2023-02-23T16:58:19;11.90;99.90
39017;DHT22;24784;45.582;5.276;2023-02-23T17:00:46;11.90;99.90
39017;DHT22;24784;45.582;5.276;2023-02-23T17:03:21;11.90;99.90
39017;DHT22;24784;45.582;5.276;2023-02-23T17:05:47;11.90;99.90
39017;DHT22;24784;45.582;5.276;2023-02-23T17:08:13;11.90;99.90
39017;DHT22;24784;45.582;5.276;2023-02-23T17:10:39;12.00;99.90
39017;DHT22;24784;45.582;5.276;2023-02-23T17:15:42;12.10;99.90
39017;DHT22;24784;45.582;5.276;2023-02-23T17:18:16;12.10;99.90
39017;DHT22;24784;45.582;5.276;2023-02-23T17:20:42;12.00;99.90
39017;DHT22;24784;45.582;5.276;2023-02-23T17:23:08;12.00;99.90
39017;DHT22;24784;45.582;5.276;2023-02-23T17:25:34;12.00;99.90
39017;DHT22;24784;45.582;5.276;2023-02-23T17:28:00;12.00;99.90
39017;DHT22;24784;45.582;5.276;2023-02-23T17:30:26;12.00;99.90
39017;DHT22;24784;45.582;5.276;2023-02-23T17:32:54;11.90;99.90
39017;DHT22;24784;45.582;5.276;2023-02-23T17:35:21;11.90;99.90
39017;DHT22;24784;45.582;5.276;2023-02-23T17:37:47;11.90;99.90
39017;DHT22;24784;45.582;5.276;2023-02-23T17:40:16;11.90;99.90
39017;DHT22;24784;45.582;5.276;2023-02-23T17:42:42;11.90;99.90
39017;DHT22;24784;45.582;5.276;2023-02-23T17:45:08;11.90;99.90
39017;DHT22;24784;45.582;5.276;2023-02-23T17:47:35;11.80;99.90
39017;DHT22;24784;45.582;5.276;2023-02-23T17:50:03;11.80;99.90
39017;DHT22;24784;45.582;5.276;2023-02-23T17:52:28;11.80;99.90
39017;DHT22;24784;45.582;5.276;2023-02-23T17:54:54;11.80;99.90
39017;DHT22;24784;45.582;5.276;2023-02-23T17:57:24;11.70;99.90
39017;DHT22;24784;45.582;5.276;2023-02-23T17:59:50;11.70;99.90
39017;DHT22;24784;45.582;5.276;2023-02-23T18:02:18;11.70;99.90
39017;DHT22;24784;45.582;5.276;2023-02-23T18:04:46;11.70;99.90
39017;DHT22;24784;45.582;5.276;2023-02-23T18:07:12;11.70;99.90
39017;DHT22;24784;45.582;5.276;2023-02-23T18:09:38;11.70;99.90
39017;DHT22;24784;45.582;5.276;2023-02-23T18:12:04;11.70;99.90
39017;DHT22;24784;45.582;5.276;2023-02-23T18:14:31;11.70;99.90
39017;DHT22;24784;45.582;5.276;2023-02-23T18:16:58;11.70;99.90
39017;DHT22;24784;45.582;5.276;2023-02-23T18:19:24;11.60;99.90
39017;DHT22;24784;45.582;5.276;2023-02-23T18:21:50;11.60;99.90